Terminal Aerodrome Forecast
Issued by NWS

Home | Current Version | Previous Version | Graphics & Text | Print | Product List | Glossary On
Versions: 1 2 3 4 5 6 7 8 9 10 11 12 13 14 15 16 17 18
804
FTUS43 KBIS 202341
TAFMOT
TAF
KMOT 202341Z 2100/2124 24010KT P6SM SKC
     FM210900 29004KT P6SM SCT020
     FM211200 VRB03KT 5SM BR BKN015
     FM211800 00000KT P6SM BKN025
     FM211900 35005KT P6SM BKN045=

USA.gov is the U.S. government's official web portal to all federal, state and local government web resources and services.